Time;durP1;ratioP1;P1;durP2;ratioP2;P2;SDS_P1;SDS_P2;PMS_P1;PMS_P2;Temp;Humidity;BMP_temperature;BMP_pressure;BME280_temperature;BME280_humidity;BME280_pressure;Samples;Min_cycle;Max_cycle;Signal;HPM_P1;HPM_P2
2023/06/03 00:00:22;;;;;;;10.60;3.10;;;;;;;14.84;71.24;99035.65;106703;1264;67681;-39
2023/06/03 00:02:52;;;;;;;13.20;3.60;;;;;;;14.74;71.08;99034.43;106759;1264;72726;-39
2023/06/03 00:05:21;;;;;;;11.80;3.00;;;;;;;14.63;71.00;99036.48;106700;1263;61752;-39
2023/06/03 00:07:49;;;;;;;15.60;3.50;;;;;;;14.57;71.07;99041.02;106761;1267;60052;-39
2023/06/03 00:10:17;;;;;;;9.90;3.00;;;;;;;14.55;71.18;99045.08;106734;1264;72129;-40
2023/06/03 00:12:47;;;;;;;7.70;2.90;;;;;;;14.49;71.04;99054.37;106731;1269;66302;-39
2023/06/03 00:15:15;;;;;;;10.20;3.60;;;;;;;14.45;71.63;99054.52;106749;1264;70498;-39
2023/06/03 00:17:43;;;;;;;8.40;3.00;;;;;;;14.41;71.83;99059.92;106714;1266;61738;-39
2023/06/03 00:20:11;;;;;;;7.80;3.10;;;;;;;14.42;71.89;99060.61;106728;1264;59515;-40
2023/06/03 00:22:39;;;;;;;9.80;3.00;;;;;;;14.42;71.57;99064.05;106755;1264;71760;-39
2023/06/03 00:25:08;;;;;;;8.90;3.20;;;;;;;14.38;71.34;99067.23;106745;1269;67582;-40
2023/06/03 00:27:35;;;;;;;9.80;2.90;;;;;;;14.32;71.20;99064.02;106764;1266;72718;-40
2023/06/03 00:30:04;;;;;;;4.70;2.50;;;;;;;14.28;71.31;99057.55;106729;1264;62036;-40
2023/06/03 00:32:32;;;;;;;10.10;2.90;;;;;;;14.26;71.18;99056.79;106775;1264;59564;-40
2023/06/03 00:35:00;;;;;;;8.80;2.50;;;;;;;14.24;71.42;99060.05;106788;1264;73387;-40
2023/06/03 00:37:28;;;;;;;5.90;2.70;;;;;;;14.20;71.66;99062.48;106717;1266;67618;-40
2023/06/03 00:39:55;;;;;;;7.90;2.90;;;;;;;14.15;71.85;99062.77;106750;1263;72710;-40
2023/06/03 00:42:23;;;;;;;12.90;2.90;;;;;;;14.11;72.02;99062.47;106717;1266;60544;-40
2023/06/03 00:44:51;;;;;;;8.20;2.70;;;;;;;14.10;72.20;99070.89;106745;1269;60069;-40
2023/06/03 00:47:19;;;;;;;10.80;3.20;;;;;;;14.10;72.30;99081.17;106847;1267;73069;-40
2023/06/03 00:49:47;;;;;;;10.50;3.40;;;;;;;14.05;72.78;99091.05;106667;1266;66638;-40
2023/06/03 00:52:15;;;;;;;6.00;3.00;;;;;;;13.95;72.96;99089.89;106741;1265;70360;-40
2023/06/03 00:54:43;;;;;;;7.40;2.60;;;;;;;13.84;73.50;99089.72;106788;1266;60191;-39
2023/06/03 00:57:10;;;;;;;6.90;2.50;;;;;;;13.78;73.65;99090.88;106712;1266;59467;-40
2023/06/03 00:59:39;;;;;;;6.60;3.00;;;;;;;13.77;73.74;99102.23;106739;1266;72002;-40
2023/06/03 01:02:07;;;;;;;7.20;3.20;;;;;;;13.75;73.87;99112.11;106686;1266;66301;-40
2023/06/03 01:04:35;;;;;;;7.10;2.90;;;;;;;13.69;73.20;99121.21;106724;1266;71414;-40
2023/06/03 01:07:17;;;;;;;8.00;2.90;;;;;;;13.60;72.86;99120.41;106685;1266;59629;-40
2023/06/03 01:10:32;;;;;;;8.70;2.70;;;;;;;13.49;72.90;99124.58;106797;1265;59307;-39
2023/06/03 01:13:08;;;;;;;9.10;3.00;;;;;;;13.47;72.97;99133.91;106602;1266;73099;-39
2023/06/03 01:15:36;;;;;;;7.30;2.50;;;;;;;13.44;73.12;99135.38;106750;1266;67918;-40
2023/06/03 01:18:05;;;;;;;5.20;2.60;;;;;;;13.38;73.15;99141.89;106750;1265;72701;-39
2023/06/03 01:20:33;;;;;;;5.40;2.60;;;;;;;13.33;73.33;99148.17;106785;1266;60281;-39
2023/06/03 01:23:28;;;;;;;4.00;2.60;;;;;;;13.28;73.36;99152.11;106723;1266;59475;-39
2023/06/03 01:25:57;;;;;;;5.20;3.20;;;;;;;13.24;73.58;99156.30;106660;1266;73191;-40
2023/06/03 01:28:25;;;;;;;4.70;3.50;;;;;;;13.18;73.67;99154.55;106765;1267;67100;-39
2023/06/03 01:30:56;;;;;;;9.90;4.00;;;;;;;13.12;72.27;99151.64;106738;1266;73234;-40
2023/06/03 01:33:26;;;;;;;6.40;3.80;;;;;;;13.01;71.53;99160.65;106724;1266;59641;-40
2023/06/03 01:35:54;;;;;;;11.30;4.20;;;;;;;12.87;72.09;99163.05;106773;1265;60041;-40
2023/06/03 01:38:22;;;;;;;24.10;4.10;;;;;;;12.82;72.23;99165.98;106651;1265;72009;-40
2023/06/03 01:40:53;;;;;;;10.00;4.30;;;;;;;12.78;72.58;99158.40;106745;1271;67598;-39
2023/06/03 01:43:21;;;;;;;8.00;4.20;;;;;;;12.75;72.85;99162.58;106755;1266;71258;-39
2023/06/03 01:45:49;;;;;;;7.20;4.00;;;;;;;12.72;72.90;99172.59;106671;1264;59722;-39
2023/06/03 01:48:17;;;;;;;7.50;3.80;;;;;;;12.66;72.91;99176.83;106747;1266;59624;-39
2023/06/03 01:50:45;;;;;;;10.20;3.90;;;;;;;12.64;72.73;99172.30;106668;1267;72120;-40
2023/06/03 01:53:15;;;;;;;7.60;4.10;;;;;;;12.63;72.78;99176.17;106735;1267;66322;-39
2023/06/03 01:55:44;;;;;;;9.00;4.00;;;;;;;12.59;72.77;99174.83;106757;1266;71454;-39
2023/06/03 01:58:12;;;;;;;6.60;3.70;;;;;;;12.51;72.84;99178.33;106713;1266;60374;-39
2023/06/03 02:00:41;;;;;;;9.80;3.40;;;;;;;12.51;72.87;99179.98;106727;1266;59243;-40
2023/06/03 02:03:08;;;;;;;8.90;3.60;;;;;;;12.57;72.97;99183.12;106662;1266;71163;-40
2023/06/03 02:05:36;;;;;;;5.00;2.90;;;;;;;12.58;72.92;99189.89;106670;1266;67929;-39
2023/06/03 02:08:07;;;;;;;6.90;3.20;;;;;;;12.55;72.55;99191.50;106678;1269;71587;-40
2023/06/03 02:10:36;;;;;;;5.80;2.90;;;;;;;12.46;72.47;99197.25;106669;1266;61755;-40
2023/06/03 02:13:04;;;;;;;4.70;3.10;;;;;;;12.42;72.30;99206.54;106731;1266;60041;-40
2023/06/03 02:15:32;;;;;;;7.30;3.10;;;;;;;12.38;71.64;99208.98;106747;1267;73114;-40
2023/06/03 02:17:59;;;;;;;6.90;3.40;;;;;;;12.30;71.34;99226.55;106737;1267;67907;-40
2023/06/03 02:20:27;;;;;;;7.40;3.10;;;;;;;12.21;71.33;99222.65;106764;1266;71419;-40
2023/06/03 02:22:57;;;;;;;4.60;2.60;;;;;;;12.13;71.23;99229.17;106739;1267;59621;-40
2023/06/03 02:25:25;;;;;;;6.80;2.20;;;;;;;12.05;71.09;99226.45;106733;1267;59633;-40
2023/06/03 02:27:54;;;;;;;4.40;2.60;;;;;;;12.01;70.71;99231.14;106729;1266;70861;-40
2023/06/03 02:30:24;;;;;;;4.70;2.10;;;;;;;11.96;70.08;99231.70;106675;1267;67589;-40
2023/06/03 02:32:52;;;;;;;3.90;2.70;;;;;;;11.89;70.01;99232.23;106710;1266;71445;-40
2023/06/03 02:35:20;;;;;;;5.80;2.40;;;;;;;11.81;69.93;99238.90;106766;1267;60145;-40
2023/06/03 02:37:48;;;;;;;3.80;2.30;;;;;;;11.74;70.07;99244.88;106751;1266;59723;-40
2023/06/03 02:40:16;;;;;;;4.20;2.00;;;;;;;11.70;70.13;99257.98;106705;1270;71942;-39
2023/06/03 02:42:44;;;;;;;4.30;2.00;;;;;;;11.68;69.98;99270.38;106737;1267;67624;-39
2023/06/03 02:45:12;;;;;;;4.80;2.20;;;;;;;11.68;69.60;99275.17;106716;1266;72744;-40
2023/06/03 02:47:40;;;;;;;3.50;2.30;;;;;;;11.64;69.68;99280.50;106851;1263;60135;-40
2023/06/03 02:50:08;;;;;;;6.30;2.80;;;;;;;11.61;70.06;99283.39;107048;1257;59550;-40
2023/06/03 02:52:36;;;;;;;5.10;2.50;;;;;;;11.57;70.38;99293.11;107105;1257;72796;-40
2023/06/03 02:55:05;;;;;;;4.60;2.60;;;;;;;11.55;70.43;99295.27;107063;1262;66311;-40
2023/06/03 02:57:33;;;;;;;7.20;2.50;;;;;;;11.55;70.41;99302.48;107263;1257;72657;-40
2023/06/03 03:00:00;;;;;;;4.10;2.40;;;;;;;11.58;70.02;99311.66;107102;1257;60411;-40
2023/06/03 03:02:28;;;;;;;5.20;2.80;;;;;;;11.59;69.42;99311.37;107087;1258;59797;-40
2023/06/03 03:04:56;;;;;;;6.50;2.80;;;;;;;11.53;69.45;99313.77;107254;1257;71791;-40
2023/06/03 03:07:26;;;;;;;5.60;2.70;;;;;;;11.48;69.68;99320.13;107034;1257;66619;-40
2023/06/03 03:09:55;;;;;;;7.70;3.20;;;;;;;11.46;69.72;99329.27;107223;1258;70428;-40
2023/06/03 03:12:23;;;;;;;4.50;2.60;;;;;;;11.45;69.72;99336.22;107062;1257;60352;-40
2023/06/03 03:14:51;;;;;;;6.50;2.60;;;;;;;11.45;69.74;99345.30;107044;1257;60138;-40
2023/06/03 03:17:18;;;;;;;6.00;2.50;;;;;;;11.45;69.50;99341.80;107052;1257;73057;-40
2023/06/03 03:19:46;;;;;;;4.80;2.80;;;;;;;11.41;69.61;99344.31;107248;1262;67584;-40
2023/06/03 03:22:14;;;;;;;4.20;2.40;;;;;;;11.38;69.78;99347.36;107043;1260;72712;-40
2023/06/03 03:24:42;;;;;;;14.30;2.80;;;;;;;11.33;69.79;99349.22;107271;1257;60078;-40
2023/06/03 03:27:10;;;;;;;3.30;2.40;;;;;;;11.27;70.14;99351.86;107107;1258;59628;-40
2023/06/03 03:29:44;;;;;;;5.30;2.50;;;;;;;11.25;69.94;99353.98;107088;1258;71716;-40
2023/06/03 03:32:12;;;;;;;6.80;2.50;;;;;;;11.25;69.92;99358.48;107160;1257;66326;-40
2023/06/03 03:34:43;;;;;;;2.50;2.30;;;;;;;11.23;69.58;99358.22;107228;1257;72709;-40
2023/06/03 03:37:12;;;;;;;4.40;2.40;;;;;;;11.15;69.09;99358.95;107230;1263;59701;-40
2023/06/03 03:39:40;;;;;;;3.20;2.50;;;;;;;11.08;69.44;99362.15;107047;1257;59580;-40
2023/06/03 03:42:08;;;;;;;8.70;2.60;;;;;;;11.00;68.92;99382.33;107140;1257;73069;-40
2023/06/03 03:44:37;;;;;;;3.10;2.30;;;;;;;10.96;67.75;99387.99;107274;1257;66376;-40
2023/06/03 03:47:06;;;;;;;2.90;2.30;;;;;;;10.94;66.90;99396.79;107110;1260;71503;-40
2023/06/03 03:49:35;;;;;;;5.50;2.40;;;;;;;10.87;66.53;99402.27;107120;1257;60496;-40
2023/06/03 03:52:06;;;;;;;4.00;2.70;;;;;;;10.80;65.92;99401.72;107149;1257;60309;-40
2023/06/03 03:54:38;;;;;;;4.10;3.10;;;;;;;10.70;65.69;99401.85;107268;1257;72533;-40
2023/06/03 03:57:12;;;;;;;5.00;3.20;;;;;;;10.62;66.03;99401.85;107111;1262;66388;-40
2023/06/03 03:59:43;;;;;;;2.80;2.40;;;;;;;10.58;66.67;99410.38;107252;1258;71386;-40
2023/06/03 04:02:11;;;;;;;5.50;2.80;;;;;;;10.60;66.89;99411.41;107272;1258;60384;-40
2023/06/03 04:04:44;;;;;;;3.40;2.90;;;;;;;10.64;66.84;99422.04;107231;1257;60428;-40
2023/06/03 04:07:16;;;;;;;6.30;3.10;;;;;;;10.64;66.27;99422.57;107232;1257;72637;-40
2023/06/03 04:09:44;;;;;;;6.30;3.50;;;;;;;10.59;65.97;99432.17;107227;1263;67590;-40
2023/06/03 04:12:29;;;;;;;4.00;3.20;;;;;;;10.55;66.04;99437.34;107050;1263;72690;-40
2023/06/03 04:14:58;;;;;;;4.30;3.10;;;;;;;10.47;65.65;99440.35;107092;1257;59710;-40
2023/06/03 04:17:26;;;;;;;6.30;3.20;;;;;;;10.32;65.73;99444.77;107061;1257;59630;-40
2023/06/03 04:19:55;;;;;;;5.50;2.50;;;;;;;10.22;65.88;99449.13;107007;1257;72586;-40
2023/06/03 04:22:28;;;;;;;6.00;2.30;;;;;;;10.24;65.91;99448.56;107212;1257;66639;-40
2023/06/03 04:25:00;;;;;;;4.20;2.40;;;;;;;10.27;65.78;99455.04;107233;1257;72697;-40
2023/06/03 04:27:43;;;;;;;3.60;1.70;;;;;;;10.32;65.85;99454.84;107197;1259;61082;-40
2023/06/03 04:30:11;;;;;;;2.90;1.80;;;;;;;10.33;64.85;99457.72;106293;1262;1003829;-40
2023/06/03 04:32:39;;;;;;;3.00;2.00;;;;;;;10.35;64.71;99457.07;107231;1257;73896;-40
2023/06/03 04:35:07;;;;;;;5.30;2.10;;;;;;;10.33;64.48;99457.73;107038;1257;67728;-39
2023/06/03 04:37:36;;;;;;;5.20;1.70;;;;;;;10.27;64.78;99458.05;107218;1257;71423;-39
2023/06/03 04:40:08;;;;;;;2.10;1.70;;;;;;;10.29;65.03;99463.91;107054;1257;60428;-39
2023/06/03 04:42:37;;;;;;;3.00;1.70;;;;;;;10.35;64.21;99469.31;107070;1257;60293;-39
2023/06/03 04:45:06;;;;;;;2.70;1.70;;;;;;;10.38;63.93;99477.28;107219;1257;72560;-39
2023/06/03 04:47:35;;;;;;;3.60;1.70;;;;;;;10.43;63.68;99482.09;107074;1263;67441;-39
2023/06/03 04:50:04;;;;;;;2.10;1.40;;;;;;;10.45;63.18;99488.11;107266;1257;70417;-40
2023/06/03 04:52:32;;;;;;;3.20;1.70;;;;;;;10.49;62.89;99490.34;107069;1257;60449;-39
2023/06/03 04:55:00;;;;;;;5.90;1.90;;;;;;;10.51;62.71;99495.49;107011;1264;60284;-39
2023/06/03 04:57:28;;;;;;;3.90;1.70;;;;;;;10.54;62.47;99492.85;107051;1257;73825;-39
2023/06/03 04:59:57;;;;;;;2.40;1.50;;;;;;;10.59;62.98;99491.55;107140;1263;66257;-39
2023/06/03 05:02:29;;;;;;;2.60;1.40;;;;;;;10.69;61.99;99505.55;107034;1257;71385;-39
2023/06/03 05:04:58;;;;;;;2.40;1.60;;;;;;;10.74;60.74;99503.58;107102;1260;60415;-39
2023/06/03 05:07:26;;;;;;;5.50;1.50;;;;;;;10.75;60.67;99508.02;107258;1257;60418;-39
2023/06/03 05:09:54;;;;;;;5.10;1.80;;;;;;;10.78;60.13;99512.34;107040;1258;72621;-39
2023/06/03 05:12:23;;;;;;;3.50;1.70;;;;;;;10.80;60.40;99512.24;107044;1257;66276;-39
2023/06/03 05:14:51;;;;;;;1.80;1.30;;;;;;;10.87;60.14;99523.68;107287;1257;72962;-39
2023/06/03 05:17:18;;;;;;;5.10;1.60;;;;;;;10.95;59.27;99528.79;107216;1260;60533;-39
2023/06/03 05:19:46;;;;;;;1.50;1.20;;;;;;;10.99;58.32;99537.71;107237;1257;60504;-38
2023/06/03 05:22:14;;;;;;;4.90;1.40;;;;;;;11.00;57.67;99539.89;107045;1262;72566;-39
2023/06/03 05:24:42;;;;;;;4.00;1.50;;;;;;;10.98;57.63;99540.02;107064;1262;66643;-39
2023/06/03 05:27:10;;;;;;;3.60;1.50;;;;;;;10.99;57.15;99544.28;107028;1257;71426;-39
2023/06/03 05:29:38;;;;;;;2.30;1.30;;;;;;;11.00;57.20;99545.96;107049;1263;59689;-39
2023/06/03 05:32:06;;;;;;;3.30;1.30;;;;;;;11.04;56.28;99550.45;107031;1262;59228;-39
2023/06/03 05:34:34;;;;;;;4.00;1.50;;;;;;;11.09;56.90;99553.03;107042;1257;72543;-39
2023/06/03 05:37:03;;;;;;;3.00;1.60;;;;;;;11.16;56.51;99556.27;107052;1257;66649;-39
2023/06/03 05:39:31;;;;;;;2.30;1.40;;;;;;;11.18;55.54;99561.88;107074;1260;73105;-39
2023/06/03 05:41:59;;;;;;;1.70;1.40;;;;;;;11.22;54.90;99563.75;107061;1260;60328;-40
2023/06/03 05:44:27;;;;;;;2.10;1.40;;;;;;;11.30;55.38;99565.21;107247;1263;60370;-40
2023/06/03 05:46:55;;;;;;;3.00;1.50;;;;;;;11.41;55.02;99567.81;107054;1262;72579;-40
2023/06/03 05:49:23;;;;;;;1.90;1.30;;;;;;;11.49;53.92;99570.63;107083;1257;66652;-40
2023/06/03 05:51:51;;;;;;;3.20;1.40;;;;;;;11.58;53.09;99565.48;107056;1263;71415;-40
2023/06/03 05:54:19;;;;;;;2.60;1.40;;;;;;;11.62;52.64;99570.08;107041;1262;60425;-40
2023/06/03 05:56:48;;;;;;;4.10;1.40;;;;;;;11.67;52.31;99575.29;107318;1262;60865;-40
2023/06/03 05:59:17;;;;;;;2.80;1.30;;;;;;;11.77;51.78;99581.94;107222;1263;72602;-40
2023/06/03 06:01:45;;;;;;;2.10;1.20;;;;;;;11.87;52.45;99584.20;107187;1263;66268;-40
2023/06/03 06:04:13;;;;;;;2.30;1.30;;;;;;;11.98;51.81;99587.64;107014;1262;72983;-40
2023/06/03 06:06:41;;;;;;;2.80;1.20;;;;;;;12.10;52.05;99593.83;107060;1257;60369;-40
2023/06/03 06:09:08;;;;;;;2.80;1.20;;;;;;;12.22;50.87;99595.58;107191;1258;60321;-40
2023/06/03 06:11:36;;;;;;;2.50;1.20;;;;;;;12.32;50.47;99599.30;107229;1262;73529;-40
2023/06/03 06:14:04;;;;;;;4.30;1.20;;;;;;;12.42;49.59;99603.17;107251;1258;66642;-40
2023/06/03 06:16:32;;;;;;;3.10;1.20;;;;;;;12.49;49.06;99595.60;107336;1262;71396;-40
2023/06/03 06:19:00;;;;;;;3.70;1.00;;;;;;;12.56;50.04;99595.10;107220;1258;60523;-40
2023/06/03 06:21:29;;;;;;;3.00;1.20;;;;;;;12.67;49.71;99604.73;107229;1261;60360;-40
2023/06/03 06:23:57;;;;;;;1.60;1.20;;;;;;;12.74;48.40;99605.52;107326;1259;72605;-40
2023/06/03 06:26:25;;;;;;;4.30;1.10;;;;;;;12.77;48.89;99600.27;107235;1260;68224;-40
2023/06/03 06:28:55;;;;;;;4.10;1.40;;;;;;;12.82;47.96;99597.08;107098;1257;72648;-40
2023/06/03 06:31:22;;;;;;;1.50;1.00;;;;;;;12.88;48.22;99602.36;107225;1263;59356;-40
2023/06/03 06:33:52;;;;;;;1.20;0.90;;;;;;;12.97;48.28;99605.14;107098;1257;60289;-40
2023/06/03 06:36:38;;;;;;;5.50;1.10;;;;;;;13.07;47.25;99608.21;107226;1255;73879;-40
2023/06/03 06:39:24;;;;;;;2.60;1.00;;;;;;;13.15;46.22;99616.52;107223;1263;66264;-40
2023/06/03 06:41:52;;;;;;;2.30;1.00;;;;;;;13.20;46.09;99617.66;107205;1260;72738;-40
2023/06/03 06:44:20;;;;;;;2.80;1.20;;;;;;;13.25;45.55;99620.23;107245;1260;60508;-40
2023/06/03 06:46:48;;;;;;;3.50;1.20;;;;;;;13.30;45.73;99628.14;107233;1262;59288;-40
2023/06/03 06:49:15;;;;;;;3.00;1.20;;;;;;;13.38;45.98;99631.58;107040;1263;73877;-40
2023/06/03 06:51:43;;;;;;;3.00;1.10;;;;;;;13.44;46.32;99635.77;107271;1258;66290;-40
2023/06/03 06:54:11;;;;;;;4.70;1.10;;;;;;;13.50;44.86;99635.75;107250;1257;71056;-40
2023/06/03 06:56:38;;;;;;;3.70;1.20;;;;;;;13.55;45.03;99635.58;107070;1263;60512;-40
2023/06/03 06:59:08;;;;;;;;;;;;;;;13.60;45.22;99639.60;107089;1257;60436;-40
2023/06/03 07:01:36;;;;;;;2.10;1.10;;;;;;;13.61;44.87;99633.23;107242;1256;73523;-40
2023/06/03 07:04:04;;;;;;;2.90;1.10;;;;;;;13.63;45.09;99631.70;107057;1263;67574;-40
2023/06/03 07:06:33;;;;;;;2.90;1.10;;;;;;;13.73;45.31;99635.70;107266;1258;72699;-40
2023/06/03 07:09:06;;;;;;;5.80;1.60;;;;;;;13.83;46.53;99638.77;107257;1258;60174;-40
2023/06/03 07:11:36;;;;;;;3.20;1.20;;;;;;;13.97;46.29;99640.78;107261;1262;59595;-40
2023/06/03 07:14:04;;;;;;;4.90;1.30;;;;;;;14.10;44.39;99643.86;107323;1262;74619;-40
2023/06/03 07:16:32;;;;;;;2.70;1.00;;;;;;;14.19;43.25;99646.19;106541;1258;1002843;-40
2023/06/03 07:19:01;;;;;;;2.70;0.90;;;;;;;14.23;43.64;99642.65;107302;1260;71399;-40
2023/06/03 07:21:34;;;;;;;2.10;1.10;;;;;;;14.30;44.52;99647.46;107296;1257;60318;-40
2023/06/03 07:24:03;;;;;;;3.00;1.00;;;;;;;14.39;43.92;99652.30;107287;1258;60287;-40
2023/06/03 07:26:32;;;;;;;2.30;1.10;;;;;;;14.48;44.80;99647.09;107304;1258;72671;-40
2023/06/03 07:29:00;;;;;;;6.80;1.00;;;;;;;14.59;44.04;99649.04;107082;1256;67756;-40
2023/06/03 07:31:29;;;;;;;2.40;1.00;;;;;;;14.70;44.15;99657.39;107070;1263;72705;-40
2023/06/03 07:33:57;;;;;;;4.30;1.20;;;;;;;14.81;43.15;99660.66;106337;1257;1002830;-40
2023/06/03 07:36:34;;;;;;;1.70;1.00;;;;;;;14.91;43.54;99656.50;107303;1258;60520;-40
2023/06/03 07:39:06;;;;;;;2.80;0.90;;;;;;;15.01;43.39;99663.27;107250;1263;71630;-40
2023/06/03 07:41:43;;;;;;;2.50;1.00;;;;;;;15.12;42.67;99668.17;107061;1257;68438;-40
2023/06/03 07:44:19;;;;;;;1.80;1.10;;;;;;;15.18;41.54;99669.14;107156;1257;72416;-40
2023/06/03 07:46:56;;;;;;;1.70;1.20;;;;;;;15.21;41.67;99669.88;107080;1257;60396;-40
2023/06/03 07:49:24;;;;;;;2.40;1.20;;;;;;;15.29;41.77;99670.84;107262;1262;60399;-40
2023/06/03 07:51:52;;;;;;;1.70;1.00;;;;;;;15.35;41.42;99673.04;107230;1257;73788;-40
2023/06/03 07:54:19;;;;;;;2.90;1.00;;;;;;;15.43;40.74;99672.06;107229;1257;66426;-40
2023/06/03 07:56:47;;;;;;;1.70;0.90;;;;;;;15.50;39.79;99671.34;107244;1257;72536;-40
2023/06/03 07:59:15;;;;;;;1.70;1.10;;;;;;;15.55;39.85;99669.34;107245;1257;60266;-40
2023/06/03 08:01:43;;;;;;;3.70;1.20;;;;;;;15.59;39.86;99667.95;107267;1257;60444;-40
2023/06/03 08:04:44;;;;;;;7.60;1.10;;;;;;;15.64;39.19;99671.63;107283;1258;73826;-40
2023/06/03 08:07:13;;;;;;;2.10;0.90;;;;;;;15.72;39.22;99675.64;107233;1263;67907;-40
2023/06/03 08:09:41;;;;;;;4.40;1.20;;;;;;;15.78;38.72;99677.45;107301;1257;71990;-40
2023/06/03 08:12:09;;;;;;;5.70;1.30;;;;;;;15.86;37.81;99679.11;107261;1263;60484;-40
2023/06/03 08:14:38;;;;;;;4.20;0.80;;;;;;;15.93;37.33;99687.49;107313;1257;60486;-40
2023/06/03 08:17:10;;;;;;;2.40;1.20;;;;;;;15.99;36.95;99686.02;107319;1257;73850;-40
2023/06/03 08:19:38;;;;;;;4.00;1.10;;;;;;;16.04;36.58;99685.95;107375;1258;67734;-40
2023/06/03 08:22:31;;;;;;;4.60;1.10;;;;;;;16.11;37.57;99686.45;107235;1257;72698;-40
2023/06/03 08:24:59;;;;;;;7.10;1.10;;;;;;;16.24;36.68;99692.71;107229;1263;60540;-40
2023/06/03 08:27:27;;;;;;;6.60;1.30;;;;;;;16.30;36.77;99693.73;107250;1257;60533;-40
2023/06/03 08:29:57;;;;;;;3.30;0.90;;;;;;;16.37;37.00;99694.13;107069;1257;73837;-40
2023/06/03 08:32:25;;;;;;;3.10;1.10;;;;;;;16.45;36.98;99693.50;107306;1260;67568;-40
2023/06/03 08:34:53;;;;;;;5.50;1.10;;;;;;;16.51;36.54;99699.14;107221;1261;71403;-40
2023/06/03 08:37:20;;;;;;;3.90;1.10;;;;;;;16.61;36.88;99694.77;107240;1257;60136;-40
2023/06/03 08:39:48;;;;;;;5.30;0.90;;;;;;;16.74;36.24;99696.27;107304;1257;60482;-41
2023/06/03 08:42:23;;;;;;;1.60;0.90;;;;;;;16.89;35.63;99694.69;107229;1258;73841;-41
2023/06/03 08:45:01;;;;;;;3.20;1.30;;;;;;;17.03;35.98;99696.23;107076;1257;67598;-41
2023/06/03 08:48:00;;;;;;;2.30;0.90;;;;;;;17.14;35.79;99705.14;107238;1262;70439;-41
2023/06/03 08:50:28;;;;;;;4.00;1.20;;;;;;;17.23;34.95;99700.48;107217;1257;60449;-40
2023/06/03 08:52:56;;;;;;;2.10;1.00;;;;;;;17.29;34.25;99703.61;107202;1257;60403;-41
2023/06/03 08:55:24;;;;;;;2.70;0.80;;;;;;;17.35;34.45;99705.87;107282;1257;72639;-40
2023/06/03 08:57:55;;;;;;;7.00;1.00;;;;;;;17.40;34.22;99702.87;107053;1257;66357;-41
2023/06/03 09:00:24;;;;;;;1.50;0.90;;;;;;;17.46;35.03;99702.39;107243;1258;72699;-41
2023/06/03 09:02:52;;;;;;;3.20;1.10;;;;;;;17.54;34.02;99698.59;107177;1257;60286;-41
2023/06/03 09:05:20;;;;;;;2.10;0.80;;;;;;;17.58;34.73;99706.82;107231;1257;60552;-41
2023/06/03 09:07:49;;;;;;;3.60;0.90;;;;;;;17.66;34.77;99709.85;107223;1258;72671;-40
2023/06/03 09:10:19;;;;;;;2.60;0.90;;;;;;;17.73;33.98;99712.33;107095;1257;67576;-40
2023/06/03 09:12:47;;;;;;;3.40;0.90;;;;;;;17.77;34.37;99706.98;107282;1262;71068;-40
2023/06/03 09:15:15;;;;;;;2.60;0.80;;;;;;;17.83;33.63;99708.91;107253;1257;60499;-40
2023/06/03 09:17:43;;;;;;;3.20;0.90;;;;;;;17.90;33.87;99707.31;107026;1257;60309;-41
2023/06/03 09:20:12;;;;;;;1.70;0.90;;;;;;;17.97;33.48;99705.95;107222;1257;73848;-41
2023/06/03 09:22:43;;;;;;;5.80;0.90;;;;;;;18.03;33.17;99712.66;107290;1257;67553;-41
2023/06/03 09:25:11;;;;;;;3.40;0.80;;;;;;;18.08;33.40;99722.58;107232;1258;72707;-41
2023/06/03 09:27:40;;;;;;;1.60;0.70;;;;;;;18.11;32.84;99721.63;107081;1257;60591;-41
2023/06/03 09:30:08;;;;;;;3.30;1.00;;;;;;;18.17;32.75;99725.27;107260;1257;60521;-41
2023/06/03 09:32:37;;;;;;;3.20;1.00;;;;;;;18.23;33.19;99727.98;107276;1257;72714;-40
2023/06/03 09:35:05;;;;;;;1.30;0.90;;;;;;;18.28;33.12;99732.27;107203;1261;67583;-41
2023/06/03 09:37:33;;;;;;;3.30;0.90;;;;;;;18.31;33.11;99728.63;107285;1257;72724;-41
2023/06/03 09:40:03;;;;;;;1.40;0.70;;;;;;;18.37;33.56;99730.55;107239;1257;60440;-41
2023/06/03 09:42:44;;;;;;;;;;;;;;;18.48;34.02;99732.52;107266;1257;60332;-41
2023/06/03 09:45:28;;;;;;;1.20;1.00;;;;;;;18.54;33.53;99739.23;107229;1257;73850;-41
2023/06/03 09:48:00;;;;;;;1.70;0.90;;;;;;;18.58;32.54;99739.67;107262;1257;66443;-40
2023/06/03 09:50:29;;;;;;;1.10;0.80;;;;;;;18.60;32.21;99732.30;107216;1258;72707;-40
2023/06/03 09:52:58;;;;;;;2.00;0.90;;;;;;;18.61;32.70;99739.90;107231;1258;60485;-39
2023/06/03 09:55:29;;;;;;;2.30;0.90;;;;;;;18.59;31.94;99736.85;107274;1257;60370;-39
2023/06/03 09:58:06;;;;;;;4.00;0.90;;;;;;;18.66;31.68;99735.39;107192;1257;73851;-40
2023/06/03 10:00:50;;;;;;;5.10;0.90;;;;;;;18.69;32.20;99731.75;107224;1257;67762;-40
2023/06/03 10:03:25;;;;;;;3.50;1.00;;;;;;;18.76;31.51;99731.77;107243;1258;70568;-40
2023/06/03 10:05:53;;;;;;;0.70;0.60;;;;;;;18.84;31.31;99735.08;107250;1263;60453;-39
2023/06/03 10:08:28;;;;;;;5.00;0.90;;;;;;;18.89;30.41;99731.44;107227;1257;60437;-40
2023/06/03 10:10:57;;;;;;;2.20;0.80;;;;;;;18.89;29.66;99729.95;107195;1257;72674;-40
2023/06/03 10:13:26;;;;;;;1.50;0.80;;;;;;;18.88;31.03;99735.69;107245;1258;68172;-40
2023/06/03 10:15:53;;;;;;;4.00;1.00;;;;;;;18.96;31.22;99732.61;107187;1257;72699;-39
2023/06/03 10:18:40;;;;;;;5.00;1.10;;;;;;;19.08;30.58;99736.11;107264;1257;60423;-39
2023/06/03 10:21:12;;;;;;;3.70;0.90;;;;;;;19.22;30.21;99736.22;107263;1256;60367;-40
2023/06/03 10:23:41;;;;;;;2.70;0.90;;;;;;;19.33;29.52;99734.85;107223;1262;73819;-40
2023/06/03 10:26:09;;;;;;;3.50;0.90;;;;;;;19.40;30.35;99742.63;107277;1258;67695;-40
2023/06/03 10:28:37;;;;;;;1.10;0.70;;;;;;;19.50;29.76;99737.11;107223;1257;71463;-40
2023/06/03 10:31:05;;;;;;;2.00;0.80;;;;;;;19.62;29.64;99729.84;107203;1257;60828;-40
2023/06/03 10:33:35;;;;;;;2.40;0.90;;;;;;;19.78;29.90;99729.95;107220;1257;60552;-40
2023/06/03 10:36:04;;;;;;;3.50;1.10;;;;;;;19.95;29.19;99739.25;107311;1257;71594;-40
2023/06/03 10:38:32;;;;;;;0.80;0.70;;;;;;;20.16;28.70;99736.29;107264;1257;66438;-40
2023/06/03 10:41:03;;;;;;;2.30;0.80;;;;;;;20.34;28.24;99734.79;107258;1257;70141;-40
2023/06/03 10:43:31;;;;;;;4.00;0.90;;;;;;;20.47;29.06;99733.82;107214;1257;60386;-40
2023/06/03 10:45:59;;;;;;;3.60;0.90;;;;;;;20.60;29.28;99742.50;107275;1257;60482;-40
2023/06/03 10:48:28;;;;;;;3.80;0.50;;;;;;;20.84;28.95;99748.11;107222;1262;73929;-40
2023/06/03 10:51:16;;;;;;;3.20;0.90;;;;;;;21.02;27.59;99747.06;107221;1257;66305;-40
2023/06/03 10:54:20;;;;;;;0.70;0.60;;;;;;;21.17;27.98;99756.77;107231;1257;71405;-40
2023/06/03 10:57:05;;;;;;;1.30;0.70;;;;;;;21.35;27.22;99752.04;107214;1262;60551;-40
2023/06/03 10:59:41;;;;;;;1.90;0.80;;;;;;;21.52;26.48;99749.28;107210;1257;60257;-40
2023/06/03 11:02:09;;;;;;;1.90;0.90;;;;;;;21.63;26.62;99752.76;107250;1259;73867;-40
2023/06/03 11:04:37;;;;;;;1.70;0.70;;;;;;;21.69;25.79;99757.69;107215;1257;67588;-40
2023/06/03 11:07:07;;;;;;;2.50;0.90;;;;;;;21.75;26.51;99757.65;107243;1257;70452;-40
2023/06/03 11:09:37;;;;;;;4.50;1.30;;;;;;;21.80;26.20;99756.91;107264;1256;60170;-40
2023/06/03 11:12:14;;;;;;;3.80;0.90;;;;;;;21.78;25.15;99756.00;107228;1257;60466;-40
2023/06/03 11:14:48;;;;;;;2.30;0.80;;;;;;;21.75;25.95;99762.69;107221;1257;73876;-40
2023/06/03 11:17:20;;;;;;;3.20;0.80;;;;;;;21.90;26.30;99753.89;107215;1257;67568;-40
2023/06/03 11:19:53;;;;;;;3.90;1.00;;;;;;;22.26;25.72;99746.64;107227;1257;72707;-40
2023/06/03 11:22:31;;;;;;;1.90;0.80;;;;;;;22.51;25.27;99750.09;107257;1257;60405;-40
2023/06/03 11:24:59;;;;;;;2.50;0.80;;;;;;;22.61;24.89;99743.23;107207;1258;60453;-40
2023/06/03 11:27:28;;;;;;;3.90;0.90;;;;;;;22.71;25.02;99750.59;107199;1262;73860;-40
2023/06/03 11:30:00;;;;;;;2.90;0.80;;;;;;;22.77;24.84;99749.80;107210;1261;67739;-40
2023/06/03 11:32:27;;;;;;;2.20;0.70;;;;;;;22.90;25.14;99750.34;107223;1256;72938;-40
2023/06/03 11:35:05;;;;;;;1.30;0.70;;;;;;;23.09;24.86;99753.53;107233;1257;60418;-40
2023/06/03 11:37:48;;;;;;;3.70;0.80;;;;;;;23.13;24.17;99753.58;107227;1257;61107;-40